createdAt,value
2022-09-15T00:01:00.928Z,61.54
2022-09-15T00:03:28.876Z,61.38
2022-09-15T00:05:56.217Z,62.04
2022-09-15T00:08:24.076Z,62.10
2022-09-15T00:10:53.732Z,62.60
2022-09-15T00:13:22.099Z,63.77
2022-09-15T00:15:49.736Z,64.45
2022-09-15T00:18:17.401Z,64.26
2022-09-15T00:20:45.538Z,64.74
2022-09-15T00:23:14.585Z,65.22
2022-09-15T00:25:52.691Z,64.75
2022-09-15T00:28:21.291Z,64.98
2022-09-15T00:30:52.447Z,65.98
2022-09-15T00:33:21.063Z,66.17
2022-09-15T00:35:50.183Z,66.12
2022-09-15T00:38:18.657Z,66.12
2022-09-15T00:40:55.481Z,65.79
2022-09-15T00:43:44.545Z,65.94
2022-09-15T00:46:12.324Z,66.10
2022-09-15T00:48:42.453Z,65.30
2022-09-15T00:51:12.883Z,65.86
2022-09-15T00:53:41.245Z,66.56
2022-09-15T00:56:10.081Z,66.68
2022-09-15T00:58:42.897Z,66.25
2022-09-15T01:01:11.568Z,66.43
2022-09-15T01:03:38.956Z,66.48
2022-09-15T01:06:10.556Z,66.46
2022-09-15T01:09:01.618Z,66.23
2022-09-15T01:11:29.208Z,66.41
2022-09-15T01:13:56.765Z,65.99
2022-09-15T01:16:48.694Z,66.48
2022-09-15T01:19:43.223Z,66.13
2022-09-15T01:22:29.210Z,66.14
2022-09-15T01:25:02.976Z,66.60
2022-09-15T01:27:42.550Z,66.67
2022-09-15T01:30:13.571Z,66.70
2022-09-15T01:33:08.464Z,66.37
2022-09-15T01:35:43.771Z,65.97
2022-09-15T01:38:35.517Z,66.20
2022-09-15T01:41:35.308Z,66.05
2022-09-15T01:44:06.979Z,65.92
2022-09-15T01:46:37.588Z,65.90
2022-09-15T01:49:07.039Z,65.85
2022-09-15T01:51:36.530Z,65.67
2022-09-15T01:54:05.824Z,65.86
2022-09-15T01:56:33.110Z,65.79
2022-09-15T01:59:00.728Z,65.41
2022-09-15T02:01:43.129Z,65.65
2022-09-15T02:04:32.131Z,66.01
2022-09-15T02:07:47.463Z,65.80
2022-09-15T02:10:26.880Z,65.56
2022-09-15T02:13:17.041Z,65.57
2022-09-15T02:15:51.576Z,65.25
2022-09-15T02:18:32.732Z,65.59
2022-09-15T02:21:09.245Z,64.95
2022-09-15T02:23:40.708Z,65.26
2022-09-15T02:26:12.757Z,65.12
2022-09-15T02:28:41.812Z,65.55
2022-09-15T02:31:12.132Z,64.85
2022-09-15T02:33:44.159Z,64.98
2022-09-15T02:36:13.784Z,65.00
2022-09-15T02:38:46.356Z,64.80
2022-09-15T02:41:14.619Z,64.71
2022-09-15T02:43:46.412Z,64.68
2022-09-15T02:46:15.037Z,64.81
2022-09-15T02:48:42.546Z,64.38
2022-09-15T02:51:10.414Z,64.60
2022-09-15T02:53:38.104Z,64.31
2022-09-15T02:56:06.495Z,64.68
2022-09-15T02:58:34.567Z,64.60
2022-09-15T03:01:06.586Z,64.44
2022-09-15T03:03:34.483Z,64.38
2022-09-15T03:06:17.331Z,64.59
2022-09-15T03:08:50.910Z,64.55
2022-09-15T03:11:20.350Z,64.54
2022-09-15T03:13:48.819Z,64.46
2022-09-15T03:16:16.391Z,64.63
2022-09-15T03:18:44.019Z,64.65
2022-09-15T03:21:13.339Z,64.98
2022-09-15T03:23:41.766Z,64.79
2022-09-15T03:26:10.454Z,64.89
2022-09-15T03:28:38.918Z,65.21
2022-09-15T03:31:07.350Z,64.56
2022-09-15T03:33:35.175Z,65.07
2022-09-15T03:36:03.037Z,64.96
2022-09-15T03:38:30.328Z,64.68
2022-09-15T03:40:59.567Z,65.32
2022-09-15T03:43:27.307Z,65.50
2022-09-15T03:45:55.217Z,65.20
2022-09-15T03:48:23.834Z,65.24
2022-09-15T03:50:51.680Z,65.01
2022-09-15T03:53:20.107Z,65.04
2022-09-15T03:55:48.895Z,65.13
2022-09-15T03:58:17.160Z,65.32
2022-09-15T04:00:45.813Z,65.31
2022-09-15T04:03:13.576Z,65.33
2022-09-15T04:05:41.921Z,65.30
2022-09-15T04:08:12.028Z,65.17
2022-09-15T04:10:40.747Z,65.20
2022-09-15T04:13:08.515Z,65.19
2022-09-15T04:15:36.033Z,65.46
2022-09-15T04:18:04.849Z,65.46
2022-09-15T04:20:32.665Z,65.37
2022-09-15T04:23:00.213Z,65.37
2022-09-15T04:25:27.855Z,64.99
2022-09-15T04:27:56.775Z,65.30
2022-09-15T04:30:24.307Z,65.11
2022-09-15T04:32:52.429Z,65.07
2022-09-15T04:35:21.904Z,64.76
2022-09-15T04:37:49.186Z,65.92
2022-09-15T04:40:16.900Z,65.42
2022-09-15T04:42:44.251Z,65.50
2022-09-15T04:45:11.639Z,65.82
2022-09-15T04:47:39.196Z,65.89
2022-09-15T04:50:06.697Z,65.60
2022-09-15T04:52:34.030Z,65.82
2022-09-15T04:55:01.587Z,65.60
2022-09-15T04:57:28.873Z,66.00
2022-09-15T04:59:56.169Z,66.23
2022-09-15T05:02:23.841Z,66.00
2022-09-15T05:04:51.560Z,66.50
2022-09-15T05:07:18.836Z,66.07
2022-09-15T05:09:46.376Z,65.95
2022-09-15T05:12:14.127Z,65.62
2022-09-15T05:14:41.455Z,65.67
2022-09-15T05:17:09.024Z,65.75
2022-09-15T05:19:37.080Z,65.67
2022-09-15T05:22:04.698Z,66.02
2022-09-15T05:24:32.237Z,66.32
2022-09-15T05:26:59.549Z,65.90
2022-09-15T05:29:27.012Z,65.56
2022-09-15T05:31:54.748Z,65.87
2022-09-15T05:34:22.092Z,65.41
2022-09-15T05:36:49.420Z,66.07
2022-09-15T05:39:17.188Z,65.98
2022-09-15T05:41:44.783Z,66.02
2022-09-15T05:44:12.068Z,65.75
2022-09-15T05:46:39.715Z,65.74
2022-09-15T05:49:08.708Z,65.21
2022-09-15T05:51:36.407Z,65.39
2022-09-15T05:54:04.153Z,66.13
2022-09-15T05:56:31.477Z,66.26
2022-09-15T05:58:58.806Z,66.14
2022-09-15T06:01:28.081Z,65.88
2022-09-15T06:03:56.806Z,66.06
2022-09-15T06:06:25.343Z,65.95
2022-09-15T06:08:58.070Z,65.88
2022-09-15T06:11:28.680Z,65.21
2022-09-15T06:13:58.843Z,65.38
2022-09-15T06:16:49.410Z,65.71
2022-09-15T06:19:22.718Z,65.73
2022-09-15T06:21:49.990Z,64.91
2022-09-15T06:24:17.543Z,64.94
2022-09-15T06:26:44.828Z,64.41
2022-09-15T06:29:12.701Z,64.79
2022-09-15T06:31:40.617Z,64.59
2022-09-15T06:34:09.316Z,64.30
2022-09-15T06:36:38.065Z,64.04
2022-09-15T06:39:05.716Z,64.13
2022-09-15T06:41:58.367Z,63.75
2022-09-15T06:44:20.623Z,63.94
2022-09-15T06:46:48.772Z,63.50
2022-09-15T06:49:16.488Z,63.57
2022-09-15T06:51:44.069Z,63.75
2022-09-15T06:54:11.919Z,64.08
2022-09-15T06:56:39.207Z,64.55
2022-09-15T06:59:06.751Z,64.03
2022-09-15T07:01:34.056Z,64.02
2022-09-15T07:04:01.863Z,64.67
2022-09-15T07:06:31.000Z,63.83
2022-09-15T07:08:58.954Z,63.53
2022-09-15T07:11:26.267Z,64.52
2022-09-15T07:13:53.911Z,64.53
2022-09-15T07:16:22.550Z,64.63
2022-09-15T07:18:49.964Z,65.14
2022-09-15T07:21:20.015Z,65.24
2022-09-15T07:23:48.235Z,64.05
2022-09-15T07:26:26.324Z,64.22
2022-09-15T07:28:59.467Z,62.62
2022-09-15T07:31:30.313Z,62.29
2022-09-15T07:34:01.345Z,61.89
2022-09-15T07:36:29.680Z,60.97
2022-09-15T07:38:57.340Z,60.64
2022-09-15T07:41:29.662Z,60.30
2022-09-15T07:43:58.991Z,59.82
2022-09-15T07:46:27.829Z,60.09
2022-09-15T07:48:58.551Z,60.56
2022-09-15T07:51:26.674Z,59.59
2022-09-15T07:53:54.552Z,58.94
2022-09-15T07:56:23.273Z,59.19
2022-09-15T07:58:51.164Z,58.66
2022-09-15T08:01:19.721Z,58.33
2022-09-15T08:03:49.194Z,58.95
2022-09-15T08:06:18.919Z,59.40
2022-09-15T08:08:47.048Z,59.76
2022-09-15T08:11:19.425Z,59.42
2022-09-15T08:13:49.471Z,59.15
2022-09-15T08:16:20.009Z,59.32
2022-09-15T08:18:47.937Z,58.71
2022-09-15T08:21:17.730Z,58.09
2022-09-15T08:23:45.268Z,56.87
2022-09-15T08:26:14.397Z,56.45
2022-09-15T08:28:42.449Z,56.15
2022-09-15T08:31:11.874Z,56.42
2022-09-15T08:33:44.755Z,55.27
2022-09-15T08:36:13.443Z,54.49
2022-09-15T08:38:41.909Z,54.44
2022-09-15T08:41:15.434Z,53.75
2022-09-15T08:43:50.638Z,52.95
2022-09-15T08:46:22.657Z,53.14
2022-09-15T08:48:56.954Z,52.77
2022-09-15T08:51:32.355Z,52.14
2022-09-15T08:54:07.539Z,51.68
2022-09-15T08:56:53.532Z,50.69
2022-09-15T08:59:21.396Z,50.95
2022-09-15T09:02:13.654Z,50.16
2022-09-15T09:04:56.202Z,48.85
2022-09-15T09:07:46.150Z,48.63
2022-09-15T09:10:28.207Z,47.99
2022-09-15T09:13:01.884Z,47.34
2022-09-15T09:15:45.501Z,47.25
2022-09-15T09:18:26.307Z,46.20
2022-09-15T09:21:18.707Z,45.97
2022-09-15T09:24:01.887Z,47.03
2022-09-15T09:26:31.511Z,45.92
2022-09-15T09:29:01.111Z,45.17
2022-09-15T09:31:29.430Z,45.63
2022-09-15T09:34:29.240Z,44.51
2022-09-15T09:37:08.557Z,43.96
2022-09-15T09:39:36.048Z,43.89
2022-09-15T09:42:05.702Z,44.20
2022-09-15T09:44:33.900Z,43.27
2022-09-15T09:47:01.919Z,42.65
2022-09-15T09:49:31.612Z,42.55
2022-09-15T09:52:02.360Z,41.23
2022-09-15T09:54:31.593Z,41.22
2022-09-15T09:57:14.166Z,41.57
2022-09-15T09:59:44.439Z,40.69
2022-09-15T10:02:11.591Z,40.97
2022-09-15T10:04:44.033Z,40.39
2022-09-15T10:07:12.571Z,40.56
2022-09-15T10:09:40.457Z,40.76
2022-09-15T10:12:19.028Z,41.23
2022-09-15T10:14:52.511Z,41.82
2022-09-15T10:17:22.980Z,41.00
2022-09-15T10:19:58.284Z,40.75
2022-09-15T10:22:32.032Z,40.31
2022-09-15T10:25:01.064Z,40.54
2022-09-15T10:27:33.942Z,39.70
2022-09-15T10:30:13.821Z,40.47
2022-09-15T10:32:42.490Z,40.64
2022-09-15T10:35:15.026Z,40.17
2022-09-15T10:37:45.369Z,40.54
2022-09-15T10:40:49.614Z,41.03
2022-09-15T10:43:47.898Z,40.22
2022-09-15T10:46:25.163Z,40.80
2022-09-15T10:49:02.504Z,41.55
2022-09-15T10:51:35.919Z,41.35
2022-09-15T10:54:18.061Z,41.07
2022-09-15T10:56:49.797Z,40.15
2022-09-15T10:59:20.086Z,40.19
2022-09-15T11:02:20.355Z,39.23
2022-09-15T11:05:06.566Z,39.10
2022-09-15T11:07:46.140Z,40.36
2022-09-15T11:11:13.490Z,41.64
2022-09-15T11:13:59.329Z,43.87
2022-09-15T11:16:51.560Z,45.25
2022-09-15T11:19:57.702Z,45.83
2022-09-15T11:22:29.073Z,47.64
2022-09-15T11:25:01.160Z,47.78
2022-09-15T11:27:29.812Z,47.68
2022-09-15T11:30:07.989Z,47.84
2022-09-15T11:32:44.902Z,48.75
2022-09-15T11:35:46.407Z,49.12
2022-09-15T11:38:18.142Z,48.30
2022-09-15T11:40:54.591Z,49.30
2022-09-15T11:43:32.028Z,49.17
2022-09-15T11:46:02.104Z,48.37
2022-09-15T11:48:53.600Z,48.96
2022-09-15T11:51:23.684Z,48.88
2022-09-15T11:54:12.664Z,48.42
2022-09-15T11:56:44.387Z,48.72
2022-09-15T11:59:39.099Z,48.67
2022-09-15T12:02:20.649Z,48.59
2022-09-15T12:05:11.087Z,49.18
2022-09-15T12:08:01.109Z,50.07
2022-09-15T12:10:33.660Z,50.42
2022-09-15T12:13:01.155Z,50.11
2022-09-15T12:15:29.339Z,49.10
2022-09-15T12:18:10.857Z,49.16
2022-09-15T12:20:51.758Z,50.28
2022-09-15T12:23:29.230Z,50.84
2022-09-15T12:25:59.830Z,50.53
2022-09-15T12:28:38.557Z,50.34
2022-09-15T12:31:34.492Z,50.44
2022-09-15T12:34:03.595Z,50.57
2022-09-15T12:36:38.315Z,51.42
2022-09-15T12:39:40.035Z,51.22
2022-09-15T12:42:27.540Z,51.37
2022-09-15T12:44:57.893Z,51.10
2022-09-15T12:47:49.024Z,53.94
2022-09-15T12:50:16.216Z,54.67
2022-09-15T12:52:54.296Z,56.22
2022-09-15T12:55:27.548Z,53.35
2022-09-15T12:58:09.644Z,52.85
2022-09-15T13:00:42.494Z,53.92
2022-09-15T13:06:10.458Z,56.24
2022-09-15T13:08:37.859Z,56.06
2022-09-15T13:11:21.507Z,57.00
2022-09-15T13:13:53.689Z,57.75
2022-09-15T13:16:43.743Z,57.33
2022-09-15T13:19:26.735Z,58.08
2022-09-15T13:21:56.857Z,59.20
2022-09-15T13:24:36.274Z,59.86
2022-09-15T13:27:05.932Z,59.64
2022-09-15T13:29:37.599Z,59.60
2022-09-15T13:32:29.743Z,59.73
2022-09-15T13:35:17.142Z,60.15
2022-09-15T13:38:12.288Z,60.70
2022-09-15T13:41:16.364Z,60.90
2022-09-15T13:44:01.519Z,61.44
2022-09-15T13:46:50.127Z,61.49
2022-09-15T13:49:36.133Z,61.66
2022-09-15T13:52:19.078Z,62.11
2022-09-15T13:55:14.293Z,62.29
2022-09-15T14:00:33.888Z,62.92
2022-09-15T14:03:10.740Z,62.73
2022-09-15T14:05:38.259Z,62.59
2022-09-15T14:08:22.987Z,62.38
2022-09-15T14:10:56.233Z,62.23
2022-09-15T14:13:28.795Z,63.12
2022-09-15T14:16:25.310Z,63.25
2022-09-15T14:18:55.206Z,63.33
2022-09-15T14:21:25.389Z,63.14
2022-09-15T14:23:55.406Z,63.07
2022-09-15T14:26:25.536Z,63.54
2022-09-15T14:28:56.699Z,63.33
2022-09-15T14:31:35.644Z,64.26
2022-09-15T14:34:06.268Z,64.67
2022-09-15T14:36:34.436Z,65.53
2022-09-15T14:39:11.640Z,66.05
2022-09-15T14:41:40.170Z,66.62
2022-09-15T14:47:22.822Z,66.45
2022-09-15T14:50:13.335Z,67.02
2022-09-15T14:52:52.295Z,67.17
2022-09-15T14:55:26.871Z,68.24
2022-09-15T14:58:07.812Z,67.66
2022-09-15T15:00:49.300Z,68.16
2022-09-15T15:03:57.335Z,68.88
2022-09-15T15:06:41.667Z,68.92
2022-09-15T15:09:15.265Z,68.30
2022-09-15T15:11:42.878Z,68.92
2022-09-15T15:14:28.984Z,68.79
2022-09-15T15:16:59.200Z,69.11
2022-09-15T15:19:38.546Z,69.07
2022-09-15T15:22:27.035Z,67.96
2022-09-15T15:24:55.228Z,68.26
2022-09-15T15:27:34.825Z,67.84
2022-09-15T15:30:24.004Z,68.02
2022-09-15T15:32:51.894Z,68.40
2022-09-15T15:35:20.216Z,68.50
2022-09-15T15:37:47.936Z,68.37
2022-09-15T15:40:18.432Z,68.27
2022-09-15T15:42:57.740Z,68.21
2022-09-15T15:45:30.440Z,68.26
2022-09-15T15:47:58.313Z,67.81
2022-09-15T15:50:28.269Z,67.65
2022-09-15T15:52:55.632Z,67.41
2022-09-15T15:55:36.342Z,67.29
2022-09-15T15:58:04.081Z,67.52
2022-09-15T16:00:55.016Z,67.31
2022-09-15T16:03:24.030Z,67.06
2022-09-15T16:05:53.519Z,65.91
2022-09-15T16:08:25.254Z,65.20
2022-09-15T16:10:53.841Z,65.43
2022-09-15T16:13:21.861Z,65.99
2022-09-15T16:15:49.422Z,65.77
2022-09-15T16:18:17.116Z,66.33
2022-09-15T16:20:44.692Z,66.45
2022-09-15T16:23:15.136Z,66.58
2022-09-15T16:25:49.710Z,66.93
2022-09-15T16:28:17.246Z,67.12
2022-09-15T16:30:45.024Z,66.36
2022-09-15T16:33:16.936Z,66.34
2022-09-15T16:35:49.353Z,66.60
2022-09-15T16:38:20.186Z,66.41
2022-09-15T16:40:49.143Z,66.68
2022-09-15T16:43:18.114Z,66.98
2022-09-15T16:45:45.894Z,66.90
2022-09-15T16:48:13.437Z,66.82
2022-09-15T16:50:50.310Z,66.69
2022-09-15T16:53:30.854Z,66.40
2022-09-15T16:55:58.580Z,66.42
2022-09-15T16:58:25.905Z,66.13
2022-09-15T17:00:53.701Z,66.09
2022-09-15T17:03:23.838Z,66.06
2022-09-15T17:05:52.936Z,65.96
2022-09-15T17:08:25.627Z,66.18
2022-09-15T17:10:53.486Z,66.03
2022-09-15T17:13:25.138Z,66.22
2022-09-15T17:15:55.424Z,66.54
2022-09-15T17:18:23.296Z,66.52
2022-09-15T17:20:50.782Z,66.66
2022-09-15T17:23:32.269Z,66.93
2022-09-15T17:26:02.099Z,66.56
2022-09-15T17:28:31.071Z,66.29
2022-09-15T17:31:00.809Z,66.22
2022-09-15T17:33:29.569Z,66.37
2022-09-15T17:35:57.169Z,66.58
2022-09-15T17:38:25.106Z,66.69
2022-09-15T17:40:55.116Z,66.56
2022-09-15T17:43:25.304Z,66.46
2022-09-15T17:45:53.846Z,66.58
2022-09-15T17:48:22.260Z,66.54
2022-09-15T17:50:49.907Z,66.19
2022-09-15T17:53:18.321Z,66.67
2022-09-15T17:55:45.664Z,66.44
2022-09-15T17:58:13.405Z,66.43
2022-09-15T18:00:42.515Z,66.04
2022-09-15T18:03:23.943Z,66.20
2022-09-15T18:05:52.153Z,66.55
2022-09-15T18:08:19.692Z,66.76
2022-09-15T18:10:47.127Z,67.14
2022-09-15T18:13:23.430Z,66.77
2022-09-15T18:15:51.253Z,67.38
2022-09-15T18:18:25.057Z,67.30
2022-09-15T18:20:54.497Z,67.35
2022-09-15T18:23:23.997Z,67.38
2022-09-15T18:25:51.927Z,67.25
2022-09-15T18:28:20.115Z,67.01
2022-09-15T18:30:49.366Z,67.20
2022-09-15T18:33:21.833Z,67.10
2022-09-15T18:35:54.227Z,67.05
2022-09-15T18:38:48.046Z,66.72
2022-09-15T18:41:15.615Z,67.19
2022-09-15T18:43:43.715Z,66.91
2022-09-15T18:46:11.205Z,66.68
2022-09-15T18:48:38.915Z,67.02
2022-09-15T18:51:10.183Z,66.86
2022-09-15T18:53:37.924Z,66.70
2022-09-15T18:56:15.093Z,66.73
2022-09-15T18:58:42.490Z,66.73
2022-09-15T19:01:10.206Z,66.68
2022-09-15T19:03:43.982Z,66.60
2022-09-15T19:06:12.020Z,66.78
2022-09-15T19:08:40.306Z,66.34
2022-09-15T19:11:07.598Z,66.46
2022-09-15T19:13:35.689Z,67.02
2022-09-15T19:16:05.346Z,67.13
2022-09-15T19:18:33.262Z,66.95
2022-09-15T19:21:11.247Z,66.90
2022-09-15T19:23:39.132Z,67.03
2022-09-15T19:26:09.134Z,67.00
2022-09-15T19:28:37.392Z,66.72
2022-09-15T19:31:05.217Z,66.63
2022-09-15T19:33:32.844Z,66.67
2022-09-15T19:36:17.269Z,66.59
2022-09-15T19:38:51.812Z,66.39
2022-09-15T19:41:19.143Z,66.42
2022-09-15T19:43:46.533Z,66.57
2022-09-15T19:46:16.208Z,66.79
2022-09-15T19:48:47.865Z,66.84
2022-09-15T19:51:18.358Z,66.76
2022-09-15T19:53:46.229Z,67.11
2022-09-15T19:56:19.026Z,67.20
2022-09-15T19:58:46.820Z,67.17
2022-09-15T20:01:37.111Z,67.48
2022-09-15T20:04:05.632Z,68.02
2022-09-15T20:06:36.117Z,67.96
2022-09-15T20:09:03.778Z,67.72
2022-09-15T20:11:31.836Z,67.82
2022-09-15T20:13:59.538Z,67.95
2022-09-15T20:16:27.466Z,67.56
2022-09-15T20:18:55.344Z,67.69
2022-09-15T20:21:45.748Z,67.50
2022-09-15T20:24:13.448Z,67.61
2022-09-15T20:26:41.111Z,67.97
2022-09-15T20:29:08.445Z,67.83
2022-09-15T20:31:35.980Z,67.61
2022-09-15T20:34:03.355Z,67.61
2022-09-15T20:36:36.034Z,67.56
2022-09-15T20:39:05.698Z,67.29
2022-09-15T20:41:32.995Z,67.45
2022-09-15T20:44:00.823Z,67.62
2022-09-15T20:46:31.517Z,67.13
2022-09-15T20:48:58.853Z,67.44
2022-09-15T20:51:29.457Z,67.31
2022-09-15T20:54:00.141Z,67.39
2022-09-15T20:56:29.205Z,67.17
2022-09-15T20:58:58.458Z,67.26
2022-09-15T21:01:37.115Z,66.93
2022-09-15T21:04:06.221Z,67.21
2022-09-15T21:06:34.071Z,67.23
2022-09-15T21:09:01.941Z,67.37
2022-09-15T21:11:30.028Z,67.68
2022-09-15T21:13:57.660Z,68.14
2022-09-15T21:16:27.417Z,67.88
2022-09-15T21:18:56.620Z,67.88
2022-09-15T21:21:26.239Z,67.97
2022-09-15T21:23:56.282Z,68.10
2022-09-15T21:26:25.938Z,67.97
2022-09-15T21:28:54.150Z,68.46
2022-09-15T21:31:32.762Z,68.87
2022-09-15T21:34:00.867Z,68.91
2022-09-15T21:36:31.571Z,68.63
2022-09-15T21:38:59.494Z,68.68
2022-09-15T21:41:29.974Z,68.81
2022-09-15T21:43:59.022Z,68.63
2022-09-15T21:46:31.146Z,68.34
2022-09-15T21:48:59.646Z,68.47
2022-09-15T21:51:29.178Z,68.58
2022-09-15T21:53:58.511Z,68.74
2022-09-15T21:56:27.327Z,69.03
2022-09-15T21:58:55.062Z,69.24
2022-09-15T22:01:28.139Z,69.45
2022-09-15T22:04:00.837Z,69.50
2022-09-15T22:06:31.935Z,69.52
2022-09-15T22:09:01.072Z,69.89
2022-09-15T22:11:28.740Z,69.43
2022-09-15T22:13:56.081Z,69.94
2022-09-15T22:16:25.166Z,69.30
2022-09-15T22:18:53.018Z,69.02
2022-09-15T22:21:23.174Z,69.02
2022-09-15T22:23:51.739Z,69.18
2022-09-15T22:26:21.728Z,69.45
2022-09-15T22:28:49.541Z,69.55
2022-09-15T22:31:18.871Z,69.45
2022-09-15T22:33:46.653Z,69.91
2022-09-15T22:36:16.104Z,70.17
2022-09-15T22:38:44.054Z,69.58
2022-09-15T22:41:13.623Z,69.46
2022-09-15T22:43:42.275Z,69.61
2022-09-15T22:46:10.695Z,70.20
2022-09-15T22:48:43.036Z,70.18
2022-09-15T22:51:11.846Z,69.76
2022-09-15T22:53:39.445Z,69.74
2022-09-15T22:56:10.580Z,70.10
2022-09-15T22:58:42.138Z,70.36
2022-09-15T23:01:12.432Z,70.00
2022-09-15T23:03:40.244Z,70.40
2022-09-15T23:06:08.211Z,70.44
2022-09-15T23:08:36.423Z,70.83
2022-09-15T23:11:09.841Z,69.88
2022-09-15T23:13:37.276Z,69.78
2022-09-15T23:16:05.771Z,70.02
2022-09-15T23:18:34.708Z,70.66
2022-09-15T23:21:07.514Z,69.94
2022-09-15T23:23:36.489Z,70.27
2022-09-15T23:26:05.806Z,69.78
2022-09-15T23:28:33.342Z,69.66
2022-09-15T23:31:00.938Z,69.40
2022-09-15T23:33:29.999Z,69.26
2022-09-15T23:36:04.594Z,69.20
2022-09-15T23:38:35.249Z,69.56
2022-09-15T23:41:02.637Z,69.39
2022-09-15T23:43:30.093Z,68.95
2022-09-15T23:45:57.645Z,69.07
2022-09-15T23:48:24.936Z,69.01
2022-09-15T23:51:18.399Z,68.84
2022-09-15T23:53:46.002Z,68.93
2022-09-15T23:56:13.317Z,68.56
2022-09-15T23:58:40.843Z,68.20
